Time;durP1;ratioP1;P1;durP2;ratioP2;P2;SDS_P1;SDS_P2;PMS_P1;PMS_P2;Temp;Humidity;BMP_temperature;BMP_pressure;BME280_temperature;BME280_humidity;BME280_pressure;Samples;Min_cycle;Max_cycle;Signal;HPM_P1;HPM_P2
2023/04/25 00:03:42;;;;;;;4.60;4.20;;;;;;;10.56;73.65;97508.48;438076;1244;109302;-42
2023/04/25 00:13:49;;;;;;;6.70;5.20;;;;;;;10.60;73.91;97509.98;437951;1249;99272;-42
2023/04/25 00:23:57;;;;;;;6.90;4.30;;;;;;;10.62;74.16;97514.44;437953;1249;107799;-43
2023/04/25 00:34:04;;;;;;;7.40;5.70;;;;;;;10.65;74.20;97519.05;437933;1250;99211;-43
2023/04/25 00:44:13;;;;;;;10.30;5.70;;;;;;;10.63;74.32;97519.98;437960;1244;112266;-40
2023/04/25 00:54:21;;;;;;;7.70;5.00;;;;;;;10.56;74.69;97520.11;437979;1244;106913;-42
2023/04/25 01:04:27;;;;;;;8.40;5.50;;;;;;;10.46;75.25;97515.79;437898;1250;98008;-42
2023/04/25 01:14:35;;;;;;;6.60;5.30;;;;;;;10.39;75.42;97516.15;438017;1249;109797;-41
2023/04/25 01:24:42;;;;;;;8.70;6.00;;;;;;;10.45;75.67;97514.88;438017;1250;99212;-42
2023/04/25 01:34:49;;;;;;;6.80;6.10;;;;;;;10.42;75.77;97517.08;438483;1249;111070;-43
2023/04/25 01:44:58;;;;;;;8.40;6.20;;;;;;;10.31;76.03;97516.69;437494;1248;108592;-41
2023/04/25 01:55:06;;;;;;;8.90;6.10;;;;;;;10.16;76.50;97527.50;437661;1250;99264;-41
2023/04/25 02:05:13;;;;;;;8.90;6.60;;;;;;;9.93;77.33;97537.36;437640;1249;108000;-41
2023/04/25 02:15:20;;;;;;;8.90;5.90;;;;;;;9.67;77.29;97531.27;437470;1250;99231;-41
2023/04/25 02:25:27;;;;;;;7.90;5.70;;;;;;;9.56;77.09;97539.83;437546;1249;111808;-42
2023/04/25 02:35:34;;;;;;;10.90;6.20;;;;;;;9.51;77.22;97543.91;437627;1250;107840;-44
2023/04/25 02:45:42;;;;;;;8.10;6.50;;;;;;;9.56;77.09;97538.20;437617;1251;99517;-42
2023/04/25 02:55:49;;;;;;;13.20;7.40;;;;;;;9.60;77.02;97541.55;437693;1249;108971;-42
2023/04/25 03:05:57;;;;;;;13.30;7.00;;;;;;;9.56;77.02;97543.36;437478;1249;99272;-42
2023/04/25 03:16:05;;;;;;;9.20;6.20;;;;;;;9.50;77.10;97540.23;437639;1249;110864;-41
2023/04/25 03:26:12;;;;;;;9.90;6.60;;;;;;;9.24;77.17;97541.34;437692;1249;107578;-41
2023/04/25 03:36:19;;;;;;;13.70;8.60;;;;;;;9.04;77.37;97542.02;437692;1249;99204;-42
2023/04/25 03:46:26;;;;;;;18.60;11.40;;;;;;;8.94;77.29;97545.00;437599;1249;108404;-41
2023/04/25 03:56:34;;;;;;;5.20;3.50;;;;;;;8.83;77.22;97552.46;437555;1246;99224;-42
2023/04/25 04:06:42;;;;;;;5.80;3.80;;;;;;;8.78;77.32;97562.69;437640;1247;112122;-41
2023/04/25 04:16:49;;;;;;;8.80;4.90;;;;;;;8.69;77.63;97564.44;437584;1250;107274;-41
2023/04/25 04:26:56;;;;;;;6.50;4.10;;;;;;;8.63;77.47;97572.22;437712;1246;99240;-42
2023/04/25 04:37:04;;;;;;;6.20;4.40;;;;;;;8.59;77.58;97576.60;437573;1246;108176;-41
2023/04/25 04:47:12;;;;;;;3.70;3.20;;;;;;;8.60;77.74;97576.45;437651;1247;97986;-41
2023/04/25 04:57:19;;;;;;;3.80;2.90;;;;;;;8.60;77.84;97580.31;437572;1250;113037;-40
2023/04/25 05:07:26;;;;;;;5.40;3.50;;;;;;;8.52;77.93;97590.41;437629;1249;107349;-41
2023/04/25 05:17:33;;;;;;;5.90;4.70;;;;;;;8.44;77.74;97598.19;437704;1245;99308;-41
2023/04/25 05:27:41;;;;;;;5.50;3.70;;;;;;;8.42;77.47;97606.37;437730;1249;108259;-41
2023/04/25 05:37:48;;;;;;;5.70;3.40;;;;;;;8.64;77.55;97608.64;437656;1247;99182;-42
2023/04/25 05:47:56;;;;;;;10.30;3.70;;;;;;;8.78;77.36;97609.80;437613;1249;111338;-44
2023/04/25 06:08:10;;;;;;;5.20;4.50;;;;;;;8.89;77.13;97610.27;437702;1247;98040;-42
2023/04/25 06:18:19;;;;;;;12.70;8.10;;;;;;;9.08;76.84;97611.45;437510;1246;108407;-41
2023/04/25 06:28:26;;;;;;;5.70;4.40;;;;;;;9.26;76.48;97611.86;437507;1249;99233;-41
2023/04/25 06:38:34;;;;;;;8.90;6.50;;;;;;;9.35;76.32;97620.81;437529;1249;111943;-42
2023/04/25 06:48:42;;;;;;;10.00;6.90;;;;;;;9.50;76.04;97619.73;437653;1246;109447;-41
2023/04/25 06:58:49;;;;;;;8.70;5.80;;;;;;;9.70;75.51;97624.42;437513;1247;99330;-47
2023/04/25 07:08:57;;;;;;;12.40;6.20;;;;;;;9.83;75.11;97619.91;437523;1249;109554;-41
2023/04/25 07:19:05;;;;;;;8.40;6.10;;;;;;;9.95;74.62;97615.44;437562;1250;99215;-41
2023/04/25 07:29:11;;;;;;;10.20;6.80;;;;;;;10.13;74.55;97614.19;437592;1248;111123;-42
2023/04/25 07:39:19;;;;;;;10.80;6.80;;;;;;;10.54;73.96;97624.46;437531;1249;107513;-41
2023/04/25 07:49:26;;;;;;;10.90;6.00;;;;;;;10.80;72.97;97617.75;437512;1249;98300;-42
2023/04/25 07:59:33;;;;;;;7.00;5.10;;;;;;;10.80;71.99;97621.30;437543;1247;108203;-42
2023/04/25 08:09:40;;;;;;;9.40;7.60;;;;;;;10.89;71.64;97621.05;437570;1249;99199;-42
2023/04/25 08:19:47;;;;;;;8.60;5.90;;;;;;;10.97;70.68;97622.15;437633;1249;112231;-42
2023/04/25 08:29:55;;;;;;;11.60;6.80;;;;;;;11.00;69.88;97617.29;437659;1250;109278;-41
2023/04/25 08:50:09;;;;;;;14.90;6.30;;;;;;;10.77;69.04;97637.25;437714;1249;107574;-42
2023/04/25 09:00:17;;;;;;;8.50;4.80;;;;;;;10.74;67.94;97642.84;437806;1249;99226;-41
2023/04/25 09:10:25;;;;;;;6.60;4.50;;;;;;;10.65;66.63;97648.11;437899;1249;110292;-43
2023/04/25 09:20:32;;;;;;;8.00;5.50;;;;;;;10.64;66.61;97648.85;437355;1249;108558;-42
2023/04/25 09:30:48;;;;;;;6.90;5.40;;;;;;;10.83;66.66;97650.61;437386;1247;99238;-42
2023/04/25 09:40:55;;;;;;;9.80;5.50;;;;;;;10.81;66.36;97648.96;437568;1249;108212;-41
2023/04/25 09:51:07;;;;;;;6.40;5.60;;;;;;;10.94;66.34;97640.31;437536;1247;99250;-41
2023/04/25 10:01:14;;;;;;;7.00;5.50;;;;;;;11.09;65.51;97635.75;437619;1249;110959;-41
2023/04/25 10:11:25;;;;;;;6.60;4.00;;;;;;;11.11;64.87;97638.77;437677;1249;108207;-43
2023/04/25 10:21:34;;;;;;;9.90;4.80;;;;;;;11.41;63.47;97637.37;437365;1247;349145;-41
2023/04/25 10:31:45;;;;;;;10.20;4.00;;;;;;;11.96;63.06;97633.33;437508;1250;108997;-42
2023/04/25 10:41:53;;;;;;;11.70;3.70;;;;;;;12.18;61.84;97625.25;437463;1247;98660;-44
2023/04/25 10:52:20;;;;;;;3.50;2.50;;;;;;;12.48;60.37;97628.36;437549;1247;111602;-42
2023/04/25 11:12:35;;;;;;;8.00;2.60;;;;;;;12.10;58.55;97628.73;437515;1247;99292;-42
2023/04/25 11:22:44;;;;;;;4.00;2.20;;;;;;;11.78;57.56;97626.02;437465;1249;108371;-43
2023/04/25 11:32:52;;;;;;;6.30;2.40;;;;;;;11.88;58.17;97635.11;437522;1247;99209;-42
2023/04/25 11:43:02;;;;;;;7.60;4.30;;;;;;;11.66;57.57;97632.65;437641;1247;111518;-41
2023/04/25 11:53:10;;;;;;;4.50;2.20;;;;;;;11.57;58.08;97634.78;437572;1249;108109;-41
2023/04/25 12:03:16;;;;;;;5.00;2.80;;;;;;;11.49;57.66;97639.05;437592;1246;99207;-41
2023/04/25 12:13:24;;;;;;;8.90;4.50;;;;;;;11.39;57.94;97637.48;437596;1247;107607;-42
2023/04/25 12:23:30;;;;;;;10.00;5.90;;;;;;;11.32;57.83;97635.05;437458;1246;99253;-43
2023/04/25 12:33:39;;;;;;;7.30;4.10;;;;;;;11.38;58.06;97638.48;437436;1249;110533;-42
2023/04/25 12:43:46;;;;;;;6.10;4.00;;;;;;;11.62;57.71;97635.13;437537;1249;107254;-42
2023/04/25 12:53:54;;;;;;;11.80;4.80;;;;;;;11.55;57.95;97641.14;437533;1250;97968;-42
2023/04/25 13:04:01;;;;;;;10.60;4.60;;;;;;;11.33;58.20;97642.11;437409;1249;110294;-42
2023/04/25 13:14:07;;;;;;;7.20;4.40;;;;;;;11.37;58.52;97633.23;437451;1247;99209;-42
2023/04/25 13:24:13;;;;;;;6.90;5.10;;;;;;;11.49;58.22;97631.31;437557;1250;110702;-41
2023/04/25 13:34:21;;;;;;;10.60;4.80;;;;;;;11.31;57.74;97636.59;437428;1260;108830;-42
2023/04/25 13:44:26;;;;;;;8.20;4.30;;;;;;;11.25;58.09;97640.27;437383;1247;99202;-43
2023/04/25 13:54:33;;;;;;;5.70;4.30;;;;;;;11.28;58.02;97635.84;437524;1249;107309;-43
2023/04/25 14:04:41;;;;;;;7.00;5.30;;;;;;;11.23;57.94;97636.08;437547;1247;99140;-41
2023/04/25 14:14:48;;;;;;;8.00;4.60;;;;;;;11.18;58.01;97637.81;437587;1250;111074;-40
2023/04/25 14:24:56;;;;;;;12.50;5.00;;;;;;;11.22;58.09;97647.08;437579;1250;109282;-41
2023/04/25 14:35:01;;;;;;;13.30;7.30;;;;;;;10.98;57.72;97646.48;437557;1248;99208;-42
2023/04/25 14:45:10;;;;;;;12.90;6.80;;;;;;;10.93;58.27;97657.56;437413;1251;107093;-42
2023/04/25 14:55:18;;;;;;;9.20;6.70;;;;;;;11.01;58.44;97657.17;437557;1260;99243;-42
2023/04/25 15:05:25;;;;;;;7.20;5.20;;;;;;;11.25;58.81;97655.77;437438;1259;112727;-42
2023/04/25 15:15:32;;;;;;;8.70;4.90;;;;;;;11.51;58.66;97663.45;437413;1260;107516;-42
2023/04/25 15:25:39;;;;;;;6.30;5.10;;;;;;;11.60;58.14;97665.77;437334;1249;97981;-41
2023/04/25 15:35:47;;;;;;;6.60;4.20;;;;;;;11.69;58.06;97660.45;437467;1260;107414;-43
2023/04/25 15:45:54;;;;;;;8.40;4.10;;;;;;;11.87;57.77;97658.73;437557;1250;99211;-40
2023/04/25 15:56:03;;;;;;;11.40;4.70;;;;;;;11.81;57.53;97660.56;437557;1250;111858;-42
2023/04/25 16:06:09;;;;;;;10.10;4.70;;;;;;;11.84;57.60;97661.64;437541;1248;106959;-41
2023/04/25 17:10:46;;;;;;;11.00;5.80;;;;;;;10.97;57.09;97681.86;427468;1286;638448;-41
2023/04/25 17:20:50;;;;;;;12.80;4.70;;;;;;;10.74;57.28;97697.15;436881;1260;531211;-42
2023/04/25 17:30:53;;;;;;;11.50;5.70;;;;;;;10.49;57.09;97710.20;436048;1263;95870;-41
2023/04/25 17:41:01;;;;;;;10.60;6.10;;;;;;;10.15;57.24;97720.48;433974;1263;108183;-40
2023/04/25 18:01:09;;;;;;;13.20;7.70;;;;;;;9.53;57.91;97747.06;438798;1260;95591;-40
2023/04/25 18:11:14;;;;;;;14.80;8.20;;;;;;;9.22;58.36;97763.35;438676;1263;108637;-40
2023/04/25 18:21:21;;;;;;;17.70;8.50;;;;;;;8.92;58.78;97780.61;436501;1262;94697;-41
2023/04/25 18:31:30;;;;;;;17.00;10.50;;;;;;;8.62;59.26;97792.08;438743;1263;95298;-40
2023/04/25 18:41:36;;;;;;;23.90;14.30;;;;;;;8.42;59.68;97803.95;438658;1263;109284;-40
2023/04/25 18:51:59;;;;;;;29.10;17.20;;;;;;;8.30;60.24;97814.55;436754;1259;108010;-40
2023/04/25 19:02:03;;;;;;;44.20;14.00;;;;;;;8.23;60.76;97834.99;434616;1263;96156;-41
2023/04/25 19:12:12;;;;;;;36.50;16.70;;;;;;;8.19;61.64;97844.89;433854;1263;95701;-40
2023/04/25 19:22:19;;;;;;;24.50;13.80;;;;;;;8.21;61.99;97844.51;433746;1263;107858;-41
2023/04/25 19:32:25;;;;;;;23.80;13.10;;;;;;;8.18;62.41;97863.86;433730;1260;96116;-41
2023/04/25 19:42:29;;;;;;;15.60;8.40;;;;;;;8.26;63.69;97880.10;433768;1263;96002;-41
2023/04/25 19:52:34;;;;;;;8.80;5.60;;;;;;;8.35;64.46;97883.91;433772;1263;97489;-41
2023/04/25 20:23:14;;;;;;;12.00;5.70;;;;;;;8.07;65.87;97902.10;436649;1251;107626;-40
2023/04/25 20:33:18;;;;;;;8.90;5.70;;;;;;;8.07;66.27;97901.48;439784;1256;108447;-40
2023/04/25 20:43:22;;;;;;;9.90;7.00;;;;;;;8.04;67.22;97910.19;438781;1255;95595;-40
2023/04/25 20:53:26;;;;;;;18.80;8.00;;;;;;;8.00;67.41;97915.46;439410;1257;95808;-41
2023/04/25 21:03:34;;;;;;;12.70;7.40;;;;;;;7.95;67.49;97915.69;437177;1256;108299;-40
2023/04/25 21:13:38;;;;;;;14.60;6.70;;;;;;;7.92;67.75;97914.98;439652;1256;96158;-39
2023/04/25 21:23:42;;;;;;;14.00;6.50;;;;;;;7.92;68.02;97923.41;440752;1256;95298;-40
2023/04/25 21:33:50;;;;;;;19.70;7.00;;;;;;;7.88;68.00;97933.90;437015;1254;108621;-50
2023/04/25 21:43:56;;;;;;;13.60;6.90;;;;;;;7.79;67.66;97941.28;435315;1256;96008;-40
2023/04/25 21:54:04;;;;;;;12.60;5.40;;;;;;;7.68;67.56;97942.72;435315;1257;95384;-40
2023/04/25 22:04:08;;;;;;;12.00;4.70;;;;;;;7.63;67.14;97953.86;435317;1251;107694;-40
2023/04/25 22:14:15;;;;;;;12.80;5.00;;;;;;;7.62;66.80;97962.73;435247;1251;109507;-40
2023/04/25 22:24:42;;;;;;;14.70;5.80;;;;;;;7.53;66.50;97969.10;435358;1256;96127;-40
2023/04/25 22:34:50;;;;;;;20.00;5.60;;;;;;;7.44;65.86;97980.70;435328;1256;109094;-40
2023/04/25 22:44:53;;;;;;;11.60;5.60;;;;;;;7.34;65.84;97995.13;435245;1256;107542;-42
2023/04/25 22:54:58;;;;;;;12.80;5.70;;;;;;;7.25;65.74;97999.98;435301;1256;95287;-41
2023/04/25 23:15:11;;;;;;;14.50;3.90;;;;;;;7.18;65.30;98006.27;435258;1251;108274;-41
2023/04/25 23:25:19;;;;;;;15.70;5.80;;;;;;;7.03;65.02;98019.53;435261;1256;95704;-40
2023/04/25 23:35:23;;;;;;;12.00;4.50;;;;;;;6.78;64.73;98028.47;435293;1257;95271;-40
2023/04/25 23:45:27;;;;;;;12.70;4.40;;;;;;;6.53;64.50;98032.83;435372;1257;95436;-40
2023/04/25 23:55:32;;;;;;;12.30;4.90;;;;;;;6.33;64.24;98041.52;435328;1256;107249;-40
